createdAt,value
2022-10-16T00:01:31.773Z,97205.47
2022-10-16T00:04:01.747Z,97209.28
2022-10-16T00:06:32.757Z,97208.44
2022-10-16T00:09:01.616Z,97213.75
2022-10-16T00:11:31.516Z,97221.72
2022-10-16T00:14:03.223Z,97228.03
2022-10-16T00:16:31.954Z,97229.84
2022-10-16T00:19:00.474Z,97230.69
2022-10-16T00:21:30.732Z,97230.69
2022-10-16T00:24:17.739Z,97223.69
2022-10-16T00:26:46.351Z,97224.53
2022-10-16T00:29:16.580Z,97218.56
2022-10-16T00:31:45.427Z,97226.53
2022-10-16T00:34:14.034Z,97236.16
2022-10-16T00:36:42.551Z,97229.16
2022-10-16T00:39:11.022Z,97238.97
2022-10-16T00:41:39.308Z,97247.91
2022-10-16T00:44:40.778Z,97237.28
2022-10-16T00:47:13.446Z,97240.94
2022-10-16T00:49:41.913Z,97246.91
2022-10-16T00:52:10.284Z,97246.25
2022-10-16T00:54:38.714Z,97249.88
2022-10-16T00:57:08.462Z,97259.50
2022-10-16T00:59:39.523Z,97258.84
2022-10-16T01:02:10.027Z,97261.66
2022-10-16T01:04:42.169Z,97258.13
2022-10-16T01:07:16.350Z,97251.88
2022-10-16T01:09:53.674Z,97260.78
2022-10-16T01:12:27.749Z,97252.00
2022-10-16T01:14:59.078Z,97258.13
2022-10-16T01:17:33.427Z,97255.47
2022-10-16T01:20:12.619Z,97259.94
2022-10-16T01:22:48.147Z,97259.00
2022-10-16T01:25:21.418Z,97267.91
2022-10-16T01:27:51.924Z,97260.09
2022-10-16T01:30:24.037Z,97260.31
2022-10-16T01:32:56.836Z,97247.88
2022-10-16T01:35:28.483Z,97250.50
2022-10-16T01:38:02.037Z,97247.19
2022-10-16T01:40:31.015Z,97256.81
2022-10-16T01:43:02.710Z,97254.31
2022-10-16T01:45:32.371Z,97264.78
2022-10-16T01:48:05.045Z,97258.78
2022-10-16T01:50:34.720Z,97256.13
2022-10-16T01:53:04.255Z,97269.41
2022-10-16T01:55:35.186Z,97266.06
2022-10-16T01:58:07.764Z,97266.06
2022-10-16T02:00:36.258Z,97266.91
2022-10-16T02:03:05.048Z,97253.78
2022-10-16T02:05:36.870Z,97246.66
2022-10-16T02:08:05.911Z,97239.69
2022-10-16T02:10:36.647Z,97253.13
2022-10-16T02:13:10.852Z,97255.63
2022-10-16T02:15:39.565Z,97264.41
2022-10-16T02:18:09.029Z,97269.88
2022-10-16T02:20:42.973Z,97269.88
2022-10-16T02:23:14.711Z,97269.88
2022-10-16T02:25:44.512Z,97266.38
2022-10-16T02:28:18.234Z,97263.72
2022-10-16T02:30:49.561Z,97255.09
2022-10-16T02:33:19.680Z,97257.75
2022-10-16T02:35:49.639Z,97257.75
2022-10-16T02:38:18.690Z,97261.38
2022-10-16T02:40:47.115Z,97270.19
2022-10-16T02:43:17.369Z,97269.34
2022-10-16T02:45:45.818Z,97264.03
2022-10-16T02:48:14.209Z,97273.81
2022-10-16T02:50:42.608Z,97276.63
2022-10-16T02:53:10.931Z,97277.47
2022-10-16T02:55:39.447Z,97287.25
2022-10-16T02:58:07.916Z,97288.25
2022-10-16T03:00:37.628Z,97294.53
2022-10-16T03:03:06.018Z,97292.03
2022-10-16T03:05:34.370Z,97293.03
2022-10-16T03:08:02.822Z,97294.84
2022-10-16T03:10:31.152Z,97293.03
2022-10-16T03:12:59.749Z,97288.69
2022-10-16T03:15:29.145Z,97290.53
2022-10-16T03:17:59.430Z,97277.25
2022-10-16T03:20:27.887Z,97277.41
2022-10-16T03:22:56.278Z,97277.41
2022-10-16T03:25:24.708Z,97284.53
2022-10-16T03:27:53.111Z,97287.34
2022-10-16T03:30:21.751Z,97280.38
2022-10-16T03:32:54.706Z,97285.69
2022-10-16T03:35:25.950Z,97275.06
2022-10-16T03:37:54.546Z,97280.38
2022-10-16T03:40:23.245Z,97292.81
2022-10-16T03:42:51.725Z,97293.78
2022-10-16T03:45:20.093Z,97296.44
2022-10-16T03:47:48.534Z,97286.66
2022-10-16T03:50:16.945Z,97283.19
2022-10-16T03:52:46.624Z,97288.47
2022-10-16T03:55:15.073Z,97291.13
2022-10-16T03:57:43.534Z,97291.13
2022-10-16T04:00:13.338Z,97294.78
2022-10-16T04:02:41.893Z,97298.25
2022-10-16T04:05:10.797Z,97292.13
2022-10-16T04:07:39.687Z,97306.38
2022-10-16T04:10:10.143Z,97294.09
2022-10-16T04:12:38.474Z,97296.75
2022-10-16T04:15:07.421Z,97305.69
2022-10-16T04:17:35.746Z,97289.78
2022-10-16T04:20:05.374Z,97293.41
2022-10-16T04:22:33.762Z,97297.75
2022-10-16T04:25:02.203Z,97301.38
2022-10-16T04:27:32.219Z,97312.81
2022-10-16T04:30:01.354Z,97320.94
2022-10-16T04:32:29.724Z,97328.06
2022-10-16T04:34:58.146Z,97326.25
2022-10-16T04:37:27.381Z,97335.19
2022-10-16T04:39:57.943Z,97341.47
2022-10-16T04:42:26.230Z,97343.28
2022-10-16T04:44:56.024Z,97333.50
2022-10-16T04:47:24.756Z,97332.53
2022-10-16T04:49:53.397Z,97324.72
2022-10-16T04:52:22.617Z,97320.41
2022-10-16T04:54:51.414Z,97291.22
2022-10-16T04:57:19.834Z,97271.84
2022-10-16T04:59:48.156Z,97277.13
2022-10-16T05:02:17.917Z,97297.53
2022-10-16T05:04:46.230Z,97312.59
2022-10-16T05:07:14.555Z,97311.78
2022-10-16T05:09:42.930Z,97314.41
2022-10-16T05:12:11.300Z,97316.25
2022-10-16T05:14:39.728Z,97318.06
2022-10-16T05:17:07.991Z,97318.88
2022-10-16T05:19:37.730Z,97316.38
2022-10-16T05:22:06.568Z,97318.22
2022-10-16T05:24:35.073Z,97312.91
2022-10-16T05:27:03.455Z,97312.91
2022-10-16T05:29:31.755Z,97307.59
2022-10-16T05:32:00.069Z,97308.59
2022-10-16T05:34:28.495Z,97307.75
2022-10-16T05:36:58.728Z,97298.97
2022-10-16T05:39:27.165Z,97312.22
2022-10-16T05:41:55.539Z,97325.50
2022-10-16T05:44:24.003Z,97321.00
2022-10-16T05:46:52.360Z,97334.28
2022-10-16T05:49:20.685Z,97330.78
2022-10-16T05:51:49.147Z,97330.78
2022-10-16T05:54:19.238Z,97336.09
2022-10-16T05:56:47.619Z,97334.44
2022-10-16T05:59:16.118Z,97337.91
2022-10-16T06:01:44.529Z,97336.25
2022-10-16T06:04:12.856Z,97344.19
2022-10-16T06:06:41.481Z,97349.66
2022-10-16T06:09:11.761Z,97349.66
2022-10-16T06:11:41.341Z,97346.16
2022-10-16T06:14:10.246Z,97332.06
2022-10-16T06:16:39.438Z,97332.06
2022-10-16T06:19:09.504Z,97336.41
2022-10-16T06:21:37.797Z,97341.69
2022-10-16T06:24:06.246Z,97347.00
2022-10-16T06:26:34.676Z,97356.78
2022-10-16T06:29:04.401Z,97363.91
2022-10-16T06:31:34.187Z,97378.00
2022-10-16T06:34:03.054Z,97382.47
2022-10-16T06:36:31.414Z,97385.94
2022-10-16T06:38:59.766Z,97394.75
2022-10-16T06:41:28.362Z,97403.69
2022-10-16T06:43:56.776Z,97408.00
2022-10-16T06:46:28.130Z,97406.19
2022-10-16T06:48:56.519Z,97410.66
2022-10-16T06:51:26.011Z,97411.50
2022-10-16T06:54:05.018Z,97407.84
2022-10-16T06:56:35.048Z,97404.38
2022-10-16T06:59:03.459Z,97412.31
2022-10-16T07:01:33.504Z,97420.28
2022-10-16T07:04:02.903Z,97411.34
2022-10-16T07:06:33.897Z,97412.19
2022-10-16T07:09:05.327Z,97419.31
2022-10-16T07:11:34.092Z,97411.50
2022-10-16T07:14:02.463Z,97421.94
2022-10-16T07:16:34.282Z,97415.81
2022-10-16T07:19:04.475Z,97423.63
2022-10-16T07:21:36.400Z,97424.44
2022-10-16T07:24:06.786Z,97426.28
2022-10-16T07:26:36.530Z,97427.09
2022-10-16T07:29:05.370Z,97436.59
2022-10-16T07:31:35.722Z,97448.03
2022-10-16T07:34:05.232Z,97443.41
2022-10-16T07:36:33.673Z,97454.00
2022-10-16T07:39:02.132Z,97448.56
2022-10-16T07:41:31.036Z,97451.22
2022-10-16T07:44:01.263Z,97455.38
2022-10-16T07:46:29.888Z,97454.41
2022-10-16T07:48:59.684Z,97455.22
2022-10-16T07:51:29.099Z,97455.22
2022-10-16T07:53:57.602Z,97461.91
2022-10-16T07:56:26.033Z,97470.56
2022-10-16T07:58:55.036Z,97465.25
2022-10-16T08:01:23.649Z,97480.19
2022-10-16T08:03:53.588Z,97474.88
2022-10-16T08:06:27.581Z,97473.06
2022-10-16T08:08:57.560Z,97479.34
2022-10-16T08:11:26.035Z,97474.88
2022-10-16T08:13:54.359Z,97471.09
2022-10-16T08:16:23.386Z,97475.41
2022-10-16T08:18:52.755Z,97483.06
2022-10-16T08:21:25.499Z,97479.44
2022-10-16T08:23:58.352Z,97483.75
2022-10-16T08:26:28.256Z,97488.91
2022-10-16T08:28:57.423Z,97485.28
2022-10-16T08:31:27.444Z,97493.78
2022-10-16T08:33:56.494Z,97480.50
2022-10-16T08:36:26.175Z,97488.31
2022-10-16T08:38:55.647Z,97485.50
2022-10-16T08:41:57.775Z,97479.22
2022-10-16T08:44:47.631Z,97475.03
2022-10-16T08:47:19.701Z,97478.06
2022-10-16T08:49:57.800Z,97479.75
2022-10-16T08:52:30.456Z,97472.28
2022-10-16T08:54:58.947Z,97477.31
2022-10-16T08:57:28.335Z,97484.97
2022-10-16T09:00:01.342Z,97485.66
2022-10-16T09:02:33.682Z,97492.50
2022-10-16T09:05:12.559Z,97497.34
2022-10-16T09:07:48.764Z,97493.84
2022-10-16T09:10:28.923Z,97501.50
2022-10-16T09:13:03.078Z,97512.13
2022-10-16T09:15:34.333Z,97503.88
2022-10-16T09:18:07.320Z,97498.25
2022-10-16T09:20:42.693Z,97508.56
2022-10-16T09:23:20.856Z,97517.38
2022-10-16T09:25:51.658Z,97526.84
2022-10-16T09:28:20.862Z,97527.53
2022-10-16T09:30:52.717Z,97528.53
2022-10-16T09:33:23.451Z,97534.13
2022-10-16T09:35:53.164Z,97537.47
2022-10-16T09:38:29.039Z,97539.97
2022-10-16T09:41:02.629Z,97536.34
2022-10-16T09:43:36.256Z,97538.16
2022-10-16T09:46:06.403Z,97539.69
2022-10-16T09:48:39.100Z,97535.19
2022-10-16T09:51:09.163Z,97531.56
2022-10-16T09:53:42.725Z,97534.06
2022-10-16T09:56:14.686Z,97531.25
2022-10-16T09:58:52.237Z,97528.44
2022-10-16T10:01:21.408Z,97531.94
2022-10-16T10:03:51.035Z,97534.44
2022-10-16T10:06:27.488Z,97528.13
2022-10-16T10:09:02.362Z,97523.34
2022-10-16T10:11:44.975Z,97525.84
2022-10-16T10:14:21.734Z,97523.25
2022-10-16T10:16:50.892Z,97528.44
2022-10-16T10:19:20.983Z,97536.09
2022-10-16T10:21:50.198Z,97540.25
2022-10-16T10:24:20.941Z,97536.31
2022-10-16T10:26:53.797Z,97533.84
2022-10-16T10:29:31.038Z,97531.34
2022-10-16T10:32:07.746Z,97534.31
2022-10-16T10:34:44.510Z,97538.31
2022-10-16T10:37:26.104Z,97536.88
2022-10-16T10:40:01.172Z,97545.34
2022-10-16T10:42:35.094Z,97541.09
2022-10-16T10:45:15.718Z,97538.16
2022-10-16T10:47:55.114Z,97545.66
2022-10-16T10:50:27.101Z,97547.00
2022-10-16T10:53:02.081Z,97536.06
2022-10-16T10:55:39.179Z,97539.09
2022-10-16T10:58:27.201Z,97539.63
2022-10-16T11:01:00.957Z,97546.28
2022-10-16T11:03:37.406Z,97542.47
2022-10-16T11:06:09.156Z,97537.69
2022-10-16T11:08:44.169Z,97540.69
2022-10-16T11:11:18.691Z,97537.56
2022-10-16T11:13:52.852Z,97532.56
2022-10-16T11:16:24.560Z,97541.22
2022-10-16T11:18:57.356Z,97538.75
2022-10-16T11:21:30.301Z,97533.13
2022-10-16T11:24:03.525Z,97534.28
2022-10-16T11:26:36.778Z,97531.78
2022-10-16T11:29:07.400Z,97532.44
2022-10-16T11:31:38.862Z,97529.31
2022-10-16T11:34:20.713Z,97529.63
2022-10-16T11:36:52.368Z,97536.97
2022-10-16T11:39:23.074Z,97527.88
2022-10-16T11:41:56.102Z,97534.03
2022-10-16T11:44:36.966Z,97522.03
2022-10-16T11:47:47.097Z,97528.03
2022-10-16T11:50:04.896Z,97521.91
2022-10-16T11:52:39.009Z,97524.78
2022-10-16T11:55:15.319Z,97524.78
2022-10-16T11:57:48.318Z,97522.63
2022-10-16T12:00:23.884Z,97532.13
2022-10-16T12:02:57.971Z,97528.78
2022-10-16T12:05:33.931Z,97522.78
2022-10-16T12:08:09.057Z,97529.78
2022-10-16T12:13:31.114Z,97516.97
2022-10-16T12:16:22.659Z,97520.16
2022-10-16T12:18:51.204Z,97531.47
2022-10-16T12:21:20.214Z,97527.81
2022-10-16T12:23:50.598Z,97526.81
2022-10-16T12:26:26.885Z,97525.00
2022-10-16T12:28:57.298Z,97527.66
2022-10-16T12:31:25.959Z,97530.16
2022-10-16T12:33:59.821Z,97533.66
2022-10-16T12:36:30.707Z,97522.00
2022-10-16T12:39:00.174Z,97521.84
2022-10-16T12:41:30.047Z,97531.66
2022-10-16T12:44:02.147Z,97536.16
2022-10-16T12:46:40.204Z,97527.16
2022-10-16T12:49:25.412Z,97530.81
2022-10-16T12:51:55.791Z,97537.16
2022-10-16T12:54:29.135Z,97532.81
2022-10-16T12:57:08.894Z,97531.00
2022-10-16T12:59:44.526Z,97531.81
2022-10-16T13:02:48.725Z,97536.81
2022-10-16T13:05:26.749Z,97539.16
2022-10-16T13:08:07.310Z,97537.84
2022-10-16T13:10:40.124Z,97548.34
2022-10-16T13:13:18.978Z,97547.34
2022-10-16T13:16:03.483Z,97541.00
2022-10-16T13:18:38.510Z,97538.19
2022-10-16T13:21:15.629Z,97533.69
2022-10-16T13:23:50.645Z,97533.19
2022-10-16T13:26:27.754Z,97534.50
2022-10-16T13:29:01.069Z,97534.00
2022-10-16T13:31:32.811Z,97533.53
2022-10-16T13:34:02.410Z,97540.03
2022-10-16T13:36:32.359Z,97542.19
2022-10-16T13:39:13.263Z,97548.84
2022-10-16T13:41:42.051Z,97549.34
2022-10-16T13:44:17.503Z,97546.38
2022-10-16T13:46:47.510Z,97546.19
2022-10-16T13:49:18.344Z,97549.19
2022-10-16T13:51:56.439Z,97549.19
2022-10-16T13:54:25.308Z,97549.19
2022-10-16T13:57:03.202Z,97557.03
2022-10-16T13:59:39.806Z,97554.91
2022-10-16T14:02:19.191Z,97550.06
2022-10-16T14:04:48.629Z,97553.41
2022-10-16T14:07:22.399Z,97551.56
2022-10-16T14:09:51.978Z,97563.06
2022-10-16T14:12:21.962Z,97556.56
2022-10-16T14:14:53.678Z,97561.41
2022-10-16T14:17:25.608Z,97556.72
2022-10-16T14:19:59.548Z,97570.06
2022-10-16T14:22:34.282Z,97564.91
2022-10-16T14:25:03.209Z,97566.72
2022-10-16T14:27:36.463Z,97567.22
2022-10-16T14:30:15.073Z,97565.06
2022-10-16T14:32:55.609Z,97562.22
2022-10-16T14:35:26.565Z,97564.72
2022-10-16T14:37:55.921Z,97569.06
2022-10-16T14:40:26.854Z,97570.56
2022-10-16T14:42:55.604Z,97571.56
2022-10-16T14:45:26.331Z,97573.88
2022-10-16T14:47:57.689Z,97573.53
2022-10-16T14:50:26.267Z,97570.84
2022-10-16T14:52:54.772Z,97572.06
2022-10-16T14:57:56.869Z,97571.22
2022-10-16T15:00:28.140Z,97578.06
2022-10-16T15:02:57.927Z,97572.53
2022-10-16T15:05:28.298Z,97570.53
2022-10-16T15:07:57.354Z,97576.84
2022-10-16T15:10:27.421Z,97577.03
2022-10-16T15:12:56.504Z,97585.22
2022-10-16T15:15:39.577Z,97578.22
2022-10-16T15:18:09.422Z,97572.88
2022-10-16T15:20:40.066Z,97575.56
2022-10-16T15:23:15.186Z,97572.88
2022-10-16T15:25:45.368Z,97571.91
2022-10-16T15:28:14.668Z,97569.22
2022-10-16T15:30:45.758Z,97570.84
2022-10-16T15:33:17.764Z,97574.19
2022-10-16T15:35:48.765Z,97575.19
2022-10-16T15:38:17.648Z,97580.53
2022-10-16T15:40:45.995Z,97570.84
2022-10-16T15:43:14.362Z,97570.06
2022-10-16T15:45:42.847Z,97573.72
2022-10-16T15:48:13.985Z,97578.38
2022-10-16T15:53:12.727Z,97578.38
2022-10-16T15:55:41.476Z,97579.22
2022-10-16T15:58:09.948Z,97573.88
2022-10-16T16:00:38.585Z,97572.22
2022-10-16T16:03:07.334Z,97573.06
2022-10-16T16:05:40.844Z,97575.88
2022-10-16T16:08:15.564Z,97575.06
2022-10-16T16:10:44.183Z,97577.56
2022-10-16T16:13:12.700Z,97575.88
2022-10-16T16:15:41.589Z,97587.41
2022-10-16T16:18:10.648Z,97590.06
2022-10-16T16:20:39.279Z,97591.91
2022-10-16T16:23:07.677Z,97584.91
2022-10-16T16:25:37.376Z,97596.56
2022-10-16T16:28:05.812Z,97598.22
2022-10-16T16:30:34.262Z,97601.88
2022-10-16T16:33:02.691Z,97603.72
2022-10-16T16:35:31.008Z,97597.56
2022-10-16T16:37:59.349Z,97603.88
2022-10-16T16:40:29.272Z,97600.38
2022-10-16T16:42:58.973Z,97604.88
2022-10-16T16:47:56.641Z,97614.56
2022-10-16T16:50:25.050Z,97610.22
2022-10-16T16:52:53.366Z,97613.88
2022-10-16T16:55:21.757Z,97620.06
2022-10-16T16:57:50.103Z,97618.38
2022-10-16T17:00:19.809Z,97618.38
2022-10-16T17:02:50.010Z,97617.56
2022-10-16T17:05:19.550Z,97630.88
2022-10-16T17:07:48.015Z,97628.22
2022-10-16T17:10:16.739Z,97625.72
2022-10-16T17:12:45.199Z,97633.72
2022-10-16T17:15:13.660Z,97629.22
2022-10-16T17:17:43.469Z,97637.22
2022-10-16T17:20:12.152Z,97633.06
2022-10-16T17:22:40.516Z,97638.38
2022-10-16T17:25:09.616Z,97645.56
2022-10-16T17:27:37.932Z,97648.22
2022-10-16T17:30:07.149Z,97661.38
2022-10-16T17:32:35.682Z,97655.53
2022-10-16T17:35:06.769Z,97661.72
2022-10-16T17:37:35.147Z,97663.53
2022-10-16T17:40:03.689Z,97668.88
2022-10-16T17:42:32.306Z,97681.53
2022-10-16T17:45:00.771Z,97678.88
2022-10-16T17:47:29.485Z,97673.53
2022-10-16T17:49:59.502Z,97677.19
2022-10-16T17:52:29.573Z,97672.03
2022-10-16T17:54:59.176Z,97675.69
2022-10-16T17:57:27.504Z,97679.19
2022-10-16T17:59:56.048Z,97683.69
2022-10-16T18:02:24.948Z,97687.34
2022-10-16T18:04:54.482Z,97690.84
2022-10-16T18:07:23.005Z,97691.84
2022-10-16T18:10:12.556Z,97693.69
2022-10-16T18:12:41.199Z,97702.69
2022-10-16T18:15:10.979Z,97702.69
2022-10-16T18:17:39.410Z,97708.00
2022-10-16T18:20:09.117Z,97716.16
2022-10-16T18:22:37.982Z,97717.16
2022-10-16T18:25:08.521Z,97718.84
2022-10-16T18:27:36.975Z,97708.50
2022-10-16T18:30:06.315Z,97712.16
2022-10-16T18:32:35.761Z,97719.31
2022-10-16T18:35:04.454Z,97716.78
2022-10-16T18:37:33.024Z,97723.94
2022-10-16T18:40:01.391Z,97720.44
2022-10-16T18:42:31.238Z,97718.78
2022-10-16T18:45:00.532Z,97720.63
2022-10-16T18:47:30.477Z,97716.13
2022-10-16T18:49:59.061Z,97721.44
2022-10-16T18:52:27.566Z,97721.59
2022-10-16T18:54:58.271Z,97726.94
2022-10-16T18:57:30.012Z,97722.78
2022-10-16T18:59:59.847Z,97723.75
2022-10-16T19:02:28.282Z,97715.94
2022-10-16T19:04:56.647Z,97720.44
2022-10-16T19:07:25.406Z,97721.41
2022-10-16T19:09:53.949Z,97721.41
2022-10-16T19:12:22.377Z,97722.41
2022-10-16T19:14:51.028Z,97726.06
2022-10-16T19:17:20.855Z,97729.75
2022-10-16T19:19:49.569Z,97735.06
2022-10-16T19:22:28.327Z,97741.22
2022-10-16T19:24:57.195Z,97734.22
2022-10-16T19:27:25.625Z,97729.91
2022-10-16T19:29:53.945Z,97727.22
2022-10-16T19:32:23.620Z,97729.06
2022-10-16T19:34:52.060Z,97737.06
2022-10-16T19:37:25.746Z,97732.72
2022-10-16T19:39:54.220Z,97739.03
2022-10-16T19:42:22.787Z,97736.38
2022-10-16T19:44:51.680Z,97739.22
2022-10-16T19:47:22.974Z,97738.38
2022-10-16T19:49:53.693Z,97742.03
2022-10-16T19:52:23.176Z,97746.53
2022-10-16T19:54:51.729Z,97748.34
2022-10-16T19:57:20.417Z,97747.53
2022-10-16T19:59:52.573Z,97754.69
2022-10-16T20:02:21.926Z,97757.50
2022-10-16T20:04:50.562Z,97759.34
2022-10-16T20:07:23.510Z,97766.66
2022-10-16T20:09:52.348Z,97765.81
2022-10-16T20:12:20.967Z,97764.97
2022-10-16T20:14:49.230Z,97770.31
2022-10-16T20:17:17.630Z,97766.97
2022-10-16T20:19:46.041Z,97765.13
2022-10-16T20:22:14.416Z,97768.81
2022-10-16T20:24:43.969Z,97776.78
2022-10-16T20:27:12.268Z,97772.47
2022-10-16T20:29:40.745Z,97763.63
2022-10-16T20:32:09.159Z,97777.94
2022-10-16T20:37:07.298Z,97772.78
2022-10-16T20:39:36.243Z,97773.78
2022-10-16T20:42:06.165Z,97782.59
2022-10-16T20:44:34.715Z,97784.44
2022-10-16T20:47:03.055Z,97792.56
2022-10-16T20:49:40.415Z,97777.59
2022-10-16T20:52:09.493Z,97783.91
2022-10-16T20:54:37.879Z,97790.22
2022-10-16T20:57:07.446Z,97792.88
2022-10-16T20:59:35.932Z,97798.22
2022-10-16T21:02:05.550Z,97796.56
2022-10-16T21:04:34.022Z,97806.41
2022-10-16T21:07:02.387Z,97807.38
2022-10-16T21:09:30.739Z,97803.91
2022-10-16T21:11:59.077Z,97806.72
2022-10-16T21:14:29.148Z,97808.53
2022-10-16T21:16:57.481Z,97803.53
2022-10-16T21:19:26.627Z,97809.16
2022-10-16T21:21:55.100Z,97812.66
2022-10-16T21:24:23.671Z,97818.00
2022-10-16T21:26:53.656Z,97814.66
2022-10-16T21:29:22.609Z,97818.16
2022-10-16T21:31:53.639Z,97815.50
2022-10-16T21:34:22.138Z,97818.16
2022-10-16T21:36:51.197Z,97811.31
2022-10-16T21:39:21.353Z,97814.81
2022-10-16T21:41:51.432Z,97822.13
2022-10-16T21:44:20.604Z,97831.09
2022-10-16T21:46:49.421Z,97831.09
2022-10-16T21:49:20.536Z,97829.44
2022-10-16T21:51:50.955Z,97819.75
2022-10-16T21:54:22.267Z,97823.41
2022-10-16T21:56:51.116Z,97827.06
2022-10-16T21:59:19.995Z,97827.91
2022-10-16T22:01:48.722Z,97831.56
2022-10-16T22:04:19.063Z,97827.91
2022-10-16T22:06:47.629Z,97829.06
2022-10-16T22:09:16.207Z,97832.72
2022-10-16T22:11:45.723Z,97834.53
2022-10-16T22:14:16.161Z,97832.88
2022-10-16T22:16:45.219Z,97834.69
2022-10-16T22:19:14.172Z,97834.00
2022-10-16T22:21:45.971Z,97834.00
2022-10-16T22:24:14.878Z,97838.66
2022-10-16T22:26:43.474Z,97836.00
2022-10-16T22:29:14.184Z,97834.47
2022-10-16T22:31:42.815Z,97836.16
2022-10-16T22:34:12.996Z,97843.44
2022-10-16T22:36:41.416Z,97838.97
2022-10-16T22:39:11.175Z,97840.78
2022-10-16T22:41:39.523Z,97847.09
2022-10-16T22:44:07.869Z,97844.59
2022-10-16T22:46:36.246Z,97844.59
2022-10-16T22:49:04.559Z,97848.41
2022-10-16T22:51:32.971Z,97851.91
2022-10-16T22:54:01.353Z,97855.56
2022-10-16T22:56:31.062Z,97848.56
2022-10-16T22:58:59.314Z,97852.22
2022-10-16T23:01:30.867Z,97849.53
2022-10-16T23:04:01.199Z,97862.03
2022-10-16T23:06:30.102Z,97860.31
2022-10-16T23:08:59.712Z,97857.81
2022-10-16T23:11:28.709Z,97859.63
2022-10-16T23:13:58.518Z,97859.94
2022-10-16T23:16:26.865Z,97863.44
2022-10-16T23:18:55.301Z,97859.09
2022-10-16T23:21:25.812Z,97862.59
2022-10-16T23:23:55.184Z,97861.91
2022-10-16T23:26:25.037Z,97865.41
2022-10-16T23:28:53.575Z,97866.56
2022-10-16T23:31:23.351Z,97864.03
2022-10-16T23:33:51.814Z,97863.22
2022-10-16T23:36:21.523Z,97851.72
2022-10-16T23:38:50.561Z,97858.03
2022-10-16T23:41:19.886Z,97851.03
2022-10-16T23:43:48.446Z,97855.69
2022-10-16T23:46:16.938Z,97854.84
2022-10-16T23:48:46.662Z,97860.16
2022-10-16T23:51:15.290Z,97855.00
2022-10-16T23:53:43.691Z,97860.31
2022-10-16T23:56:12.059Z,97861.16
2022-10-16T23:58:40.441Z,97860.31
